createdAt,value
2019-03-31T00:01:26.043Z,14.11
2019-03-31T00:03:56.118Z,14.10
2019-03-31T00:06:26.174Z,14.12
2019-03-31T00:08:57.517Z,14.10
2019-03-31T00:11:28.687Z,14.10
2019-03-31T00:13:58.778Z,14.13
2019-03-31T00:16:28.894Z,14.14
2019-03-31T00:18:58.982Z,14.13
2019-03-31T00:21:29.068Z,14.12
2019-03-31T00:23:59.157Z,14.08
2019-03-31T00:26:29.216Z,14.07
2019-03-31T00:28:59.325Z,14.01
2019-03-31T00:31:29.409Z,13.94
2019-03-31T00:33:59.575Z,13.83
2019-03-31T00:36:29.712Z,13.78
2019-03-31T00:38:59.818Z,13.78
2019-03-31T00:41:29.908Z,13.81
2019-03-31T00:44:01.010Z,13.72
2019-03-31T00:46:31.069Z,13.72
2019-03-31T00:49:01.230Z,13.69
2019-03-31T00:51:31.384Z,13.63
2019-03-31T00:54:01.506Z,13.58
2019-03-31T00:56:31.579Z,13.56
2019-03-31T00:59:01.730Z,13.51
2019-03-31T01:01:44.065Z,13.44
2019-03-31T01:04:18.557Z,13.42
2019-03-31T01:06:51.521Z,13.28
2019-03-31T01:09:25.332Z,13.26
2019-03-31T01:11:55.753Z,13.19
2019-03-31T01:14:26.467Z,13.14
2019-03-31T01:16:57.209Z,13.10
2019-03-31T01:19:27.678Z,13.13
2019-03-31T01:21:57.836Z,13.06
2019-03-31T01:24:27.939Z,13.03
2019-03-31T01:26:58.041Z,13.02
2019-03-31T01:29:28.291Z,13.00
2019-03-31T01:31:58.561Z,12.96
2019-03-31T01:34:28.644Z,12.92
2019-03-31T01:36:58.837Z,12.93
2019-03-31T01:39:31.360Z,12.89
2019-03-31T01:42:01.572Z,12.85
2019-03-31T01:44:31.682Z,12.75
2019-03-31T01:47:01.839Z,12.76
2019-03-31T01:49:31.932Z,12.85
2019-03-31T01:52:02.812Z,12.77
2019-03-31T01:54:32.913Z,12.64
2019-03-31T01:57:02.974Z,12.60
2019-03-31T01:59:33.048Z,12.60
2019-03-31T02:02:04.578Z,12.54
2019-03-31T02:04:34.832Z,12.60
2019-03-31T02:07:05.094Z,12.58
2019-03-31T02:09:35.164Z,12.53
2019-03-31T02:12:05.323Z,12.41
2019-03-31T02:14:35.396Z,12.39
2019-03-31T02:17:05.484Z,12.36
2019-03-31T02:19:35.561Z,12.30
2019-03-31T02:22:05.739Z,12.25
2019-03-31T02:24:35.809Z,12.04
2019-03-31T02:27:05.911Z,12.04
2019-03-31T02:29:35.991Z,12.00
2019-03-31T02:32:22.556Z,11.96
2019-03-31T02:34:37.933Z,11.92
2019-03-31T02:37:08.037Z,11.88
2019-03-31T02:39:38.104Z,11.86
2019-03-31T02:42:08.278Z,11.82
2019-03-31T02:44:38.431Z,11.76
2019-03-31T02:47:08.547Z,11.76
2019-03-31T02:49:38.618Z,11.79
2019-03-31T02:52:08.921Z,11.85
2019-03-31T02:54:39.091Z,11.89
2019-03-31T02:57:09.366Z,11.77
2019-03-31T02:59:39.940Z,11.68
2019-03-31T03:02:10.129Z,11.73
2019-03-31T03:04:42.158Z,11.71
2019-03-31T03:07:13.828Z,11.63
2019-03-31T03:09:45.713Z,11.71
2019-03-31T03:12:18.035Z,11.52
2019-03-31T03:14:50.192Z,11.44
2019-03-31T03:17:20.268Z,11.24
2019-03-31T03:19:50.340Z,11.09
2019-03-31T03:22:20.491Z,10.90
2019-03-31T03:24:50.589Z,10.67
2019-03-31T03:27:20.696Z,10.50
2019-03-31T03:29:50.732Z,10.52
2019-03-31T03:32:20.877Z,10.23
2019-03-31T03:34:50.946Z,10.15
2019-03-31T03:37:21.171Z,10.21
2019-03-31T03:39:51.192Z,9.96
2019-03-31T03:42:22.244Z,9.94
2019-03-31T03:44:52.309Z,9.85
2019-03-31T03:47:23.440Z,9.83
2019-03-31T03:49:53.532Z,9.67
2019-03-31T03:52:23.594Z,9.60
2019-03-31T03:54:53.734Z,9.77
2019-03-31T03:57:23.811Z,9.92
2019-03-31T03:59:53.921Z,9.96
2019-03-31T04:02:24.011Z,9.71
2019-03-31T04:04:54.096Z,9.75
2019-03-31T04:07:24.177Z,9.76
2019-03-31T04:09:54.260Z,9.60
2019-03-31T04:12:24.348Z,9.41
2019-03-31T04:14:54.412Z,9.51
2019-03-31T04:17:24.532Z,9.40
2019-03-31T04:19:54.596Z,9.64
2019-03-31T04:22:24.680Z,9.85
2019-03-31T04:24:54.735Z,9.98
2019-03-31T04:27:24.837Z,10.03
2019-03-31T04:29:54.895Z,10.14
2019-03-31T04:32:25.013Z,10.18
2019-03-31T04:34:55.067Z,10.11
2019-03-31T04:37:25.184Z,9.86
2019-03-31T04:39:55.256Z,10.04
2019-03-31T04:42:25.374Z,10.23
2019-03-31T04:44:55.442Z,10.24
2019-03-31T04:47:25.570Z,10.40
2019-03-31T04:49:55.645Z,10.47
2019-03-31T04:52:25.747Z,10.52
2019-03-31T04:54:55.839Z,10.67
2019-03-31T04:57:25.929Z,10.70
2019-03-31T04:59:56.005Z,10.78
2019-03-31T05:02:27.318Z,10.91
2019-03-31T05:04:57.568Z,11.07
2019-03-31T05:07:27.649Z,11.23
2019-03-31T05:09:57.757Z,11.39
2019-03-31T05:12:27.834Z,11.44
2019-03-31T05:14:57.904Z,11.54
2019-03-31T05:17:27.994Z,11.57
2019-03-31T05:19:58.060Z,11.55
2019-03-31T05:22:28.149Z,11.61
2019-03-31T05:24:58.244Z,11.44
2019-03-31T05:27:28.323Z,11.70
2019-03-31T05:29:58.398Z,11.77
2019-03-31T05:32:28.482Z,11.77
2019-03-31T05:34:58.545Z,11.82
2019-03-31T05:37:28.622Z,11.85
2019-03-31T05:39:58.700Z,11.77
2019-03-31T05:42:28.789Z,11.84
2019-03-31T05:44:58.847Z,11.93
2019-03-31T05:47:28.930Z,12.00
2019-03-31T05:49:58.990Z,12.04
2019-03-31T05:52:29.073Z,11.95
2019-03-31T05:54:59.145Z,11.92
2019-03-31T05:57:29.223Z,11.91
2019-03-31T05:59:59.303Z,11.93
2019-03-31T06:02:29.376Z,11.96
2019-03-31T06:04:59.468Z,11.96
2019-03-31T06:07:29.568Z,12.04
2019-03-31T06:09:59.658Z,12.08
2019-03-31T06:12:29.744Z,12.05
2019-03-31T06:14:59.827Z,12.10
2019-03-31T06:17:29.901Z,12.14
2019-03-31T06:20:00.019Z,12.07
2019-03-31T06:22:30.093Z,12.17
2019-03-31T06:25:00.353Z,12.16
2019-03-31T06:27:30.484Z,12.20
2019-03-31T06:30:00.523Z,12.17
2019-03-31T06:32:30.616Z,12.24
2019-03-31T06:35:00.717Z,12.37
2019-03-31T06:37:30.811Z,12.45
2019-03-31T06:40:00.977Z,12.53
2019-03-31T06:42:31.062Z,12.53
2019-03-31T06:45:01.139Z,12.64
2019-03-31T06:47:31.250Z,12.72
2019-03-31T06:50:01.315Z,12.75
2019-03-31T06:52:31.406Z,12.78
2019-03-31T06:55:02.555Z,12.78
2019-03-31T06:57:32.697Z,12.82
2019-03-31T07:00:02.768Z,12.82
2019-03-31T07:02:32.878Z,12.90
2019-03-31T07:05:02.953Z,12.95
2019-03-31T07:07:33.071Z,12.90
2019-03-31T07:10:03.181Z,12.89
2019-03-31T07:12:33.302Z,12.94
2019-03-31T07:15:03.551Z,12.99
2019-03-31T07:17:33.669Z,13.06
2019-03-31T07:20:04.142Z,13.03
2019-03-31T07:22:34.239Z,13.04
2019-03-31T07:25:04.774Z,12.65
2019-03-31T07:27:34.864Z,12.84
2019-03-31T07:30:07.286Z,12.55
2019-03-31T07:32:37.702Z,12.33
2019-03-31T07:35:18.188Z,12.38
2019-03-31T07:37:47.030Z,12.09
2019-03-31T07:40:13.266Z,11.90
2019-03-31T07:42:43.413Z,12.01
2019-03-31T07:45:15.393Z,12.05
2019-03-31T07:47:45.652Z,12.11
2019-03-31T07:50:18.112Z,12.15
2019-03-31T07:52:48.181Z,11.90
2019-03-31T07:55:18.396Z,11.57
2019-03-31T07:57:48.574Z,11.29
2019-03-31T08:00:20.517Z,11.41
2019-03-31T08:02:50.678Z,11.07
2019-03-31T08:05:32.391Z,11.44
2019-03-31T08:07:52.590Z,10.98
2019-03-31T08:10:23.905Z,11.38
2019-03-31T08:12:54.027Z,11.15
2019-03-31T08:15:25.054Z,11.56
2019-03-31T08:17:55.154Z,11.41
2019-03-31T08:20:25.337Z,11.55
2019-03-31T08:22:57.068Z,11.58
2019-03-31T08:25:27.285Z,11.62
2019-03-31T08:27:57.571Z,11.88
2019-03-31T08:30:27.953Z,11.91
2019-03-31T08:32:58.050Z,11.83
2019-03-31T08:35:28.135Z,11.81
2019-03-31T08:37:58.262Z,12.05
2019-03-31T08:40:28.420Z,12.02
2019-03-31T08:42:58.622Z,12.14
2019-03-31T08:45:30.447Z,12.29
2019-03-31T08:48:00.541Z,11.69
2019-03-31T08:50:30.651Z,12.18
2019-03-31T08:53:00.744Z,11.88
2019-03-31T08:55:30.833Z,11.42
2019-03-31T08:58:00.951Z,11.14
2019-03-31T09:00:50.076Z,10.99
2019-03-31T09:03:20.160Z,10.67
2019-03-31T09:06:01.115Z,10.68
2019-03-31T09:08:22.013Z,10.42
2019-03-31T09:10:52.129Z,10.70
2019-03-31T09:13:22.318Z,10.75
2019-03-31T09:15:52.399Z,11.01
2019-03-31T09:18:22.494Z,11.08
2019-03-31T09:20:52.691Z,11.15
2019-03-31T09:23:22.980Z,11.41
2019-03-31T09:25:53.039Z,11.36
2019-03-31T09:28:23.182Z,11.59
2019-03-31T09:30:55.922Z,11.42
2019-03-31T09:33:26.082Z,11.66
2019-03-31T09:35:56.183Z,12.04
2019-03-31T09:38:26.542Z,12.17
2019-03-31T09:40:56.800Z,12.11
2019-03-31T09:43:27.798Z,12.26
2019-03-31T09:45:57.882Z,11.25
2019-03-31T09:48:31.056Z,12.17
2019-03-31T09:51:01.157Z,12.22
2019-03-31T09:53:31.247Z,12.38
2019-03-31T09:56:01.337Z,12.37
2019-03-31T09:58:31.467Z,12.76
2019-03-31T10:01:01.541Z,12.84
2019-03-31T10:03:31.633Z,12.28
2019-03-31T10:06:10.774Z,12.45
2019-03-31T10:08:33.697Z,12.54
2019-03-31T10:11:03.865Z,12.62
2019-03-31T10:14:12.644Z,12.88
2019-03-31T10:16:42.725Z,13.07
2019-03-31T10:19:13.183Z,12.69
2019-03-31T10:21:43.335Z,12.56
2019-03-31T10:24:13.789Z,12.34
2019-03-31T10:26:44.034Z,12.44
2019-03-31T10:29:14.157Z,12.69
2019-03-31T10:31:44.229Z,12.70
2019-03-31T10:34:14.332Z,12.80
2019-03-31T10:36:45.096Z,12.93
2019-03-31T10:39:15.601Z,12.80
2019-03-31T10:41:45.684Z,12.93
2019-03-31T10:44:15.758Z,12.83
2019-03-31T10:46:45.859Z,12.68
2019-03-31T10:49:15.937Z,12.62
2019-03-31T10:51:46.035Z,12.87
2019-03-31T10:54:16.989Z,12.91
2019-03-31T10:56:47.267Z,12.59
2019-03-31T10:59:17.436Z,12.01
2019-03-31T11:01:47.533Z,12.81
2019-03-31T11:04:17.631Z,12.80
2019-03-31T11:06:58.459Z,12.91
2019-03-31T11:09:19.511Z,12.57
2019-03-31T11:11:49.595Z,12.51
2019-03-31T11:14:19.949Z,12.62
2019-03-31T11:16:50.123Z,13.00
2019-03-31T11:19:21.860Z,13.27
2019-03-31T11:22:05.357Z,13.53
2019-03-31T11:24:35.622Z,12.95
2019-03-31T11:27:05.829Z,12.20
2019-03-31T11:29:35.925Z,12.29
2019-03-31T11:32:06.049Z,12.69
2019-03-31T11:34:36.134Z,12.85
2019-03-31T11:37:13.274Z,13.10
2019-03-31T11:39:38.188Z,13.01
2019-03-31T11:42:08.356Z,13.24
2019-03-31T11:44:38.441Z,13.35
2019-03-31T11:47:08.579Z,13.65
2019-03-31T11:49:38.831Z,14.00
2019-03-31T11:52:09.001Z,13.89
2019-03-31T11:54:39.065Z,13.60
2019-03-31T11:57:09.194Z,13.87
2019-03-31T11:59:39.286Z,14.26
2019-03-31T12:02:09.451Z,13.52
2019-03-31T12:04:39.531Z,13.45
2019-03-31T12:07:09.601Z,13.67
2019-03-31T12:09:39.671Z,14.12
2019-03-31T12:12:09.756Z,14.06
2019-03-31T12:14:39.860Z,14.04
2019-03-31T12:17:10.040Z,14.34
2019-03-31T12:19:40.160Z,14.31
2019-03-31T12:22:10.327Z,14.24
2019-03-31T12:24:40.548Z,14.03
2019-03-31T12:27:10.762Z,13.82
2019-03-31T12:29:40.841Z,13.53
2019-03-31T12:32:11.102Z,13.78
2019-03-31T12:34:41.168Z,13.87
2019-03-31T12:37:11.300Z,13.79
2019-03-31T12:39:41.372Z,13.79
2019-03-31T12:42:11.502Z,13.83
2019-03-31T12:44:41.567Z,13.49
2019-03-31T12:47:11.686Z,13.44
2019-03-31T12:49:41.760Z,12.78
2019-03-31T12:52:12.875Z,13.10
2019-03-31T12:54:43.202Z,13.23
2019-03-31T12:57:13.364Z,13.27
2019-03-31T12:59:43.500Z,13.49
2019-03-31T13:02:13.709Z,13.49
2019-03-31T13:04:43.912Z,13.15
2019-03-31T13:07:15.017Z,13.18
2019-03-31T13:09:45.170Z,13.28
2019-03-31T13:12:15.243Z,13.41
2019-03-31T13:14:46.291Z,12.90
2019-03-31T13:17:17.324Z,12.93
2019-03-31T13:19:48.433Z,13.23
2019-03-31T13:22:19.482Z,13.46
2019-03-31T13:24:49.655Z,13.09
2019-03-31T13:27:19.712Z,13.19
2019-03-31T13:29:49.818Z,12.98
2019-03-31T13:32:20.527Z,13.21
2019-03-31T13:34:50.613Z,12.92
2019-03-31T13:37:20.749Z,13.28
2019-03-31T13:39:50.837Z,13.45
2019-03-31T13:42:20.984Z,13.57
2019-03-31T13:44:51.051Z,13.68
2019-03-31T13:47:21.128Z,13.75
2019-03-31T13:49:51.202Z,13.67
2019-03-31T13:52:21.323Z,13.73
2019-03-31T13:54:51.381Z,12.89
2019-03-31T13:57:22.614Z,12.78
2019-03-31T13:59:52.834Z,13.05
2019-03-31T14:02:23.044Z,12.60
2019-03-31T14:04:53.103Z,12.98
2019-03-31T14:07:23.196Z,12.76
2019-03-31T14:09:53.309Z,12.91
2019-03-31T14:12:23.388Z,13.16
2019-03-31T14:14:53.471Z,13.61
2019-03-31T14:17:24.573Z,13.47
2019-03-31T14:19:54.906Z,13.47
2019-03-31T14:22:25.136Z,12.45
2019-03-31T14:24:55.251Z,12.27
2019-03-31T14:27:25.359Z,12.72
2019-03-31T14:29:55.436Z,12.87
2019-03-31T14:32:25.534Z,12.94
2019-03-31T14:34:55.709Z,13.03
2019-03-31T14:37:25.823Z,13.06
2019-03-31T14:39:55.899Z,13.36
2019-03-31T14:42:26.089Z,13.49
2019-03-31T14:44:56.223Z,13.63
2019-03-31T14:47:26.366Z,13.42
2019-03-31T14:49:57.488Z,13.07
2019-03-31T14:52:28.065Z,13.42
2019-03-31T14:54:58.160Z,13.63
2019-03-31T14:57:28.220Z,13.84
2019-03-31T14:59:58.297Z,13.90
2019-03-31T15:02:29.457Z,13.72
2019-03-31T15:04:59.594Z,13.24
2019-03-31T15:07:29.671Z,12.97
2019-03-31T15:09:59.771Z,13.44
2019-03-31T15:12:29.829Z,13.42
2019-03-31T15:15:00.033Z,13.72
2019-03-31T15:17:30.127Z,13.80
2019-03-31T15:20:00.368Z,13.75
2019-03-31T15:22:30.445Z,14.06
2019-03-31T15:25:01.185Z,13.71
2019-03-31T15:27:31.286Z,13.25
2019-03-31T15:30:01.381Z,13.93
2019-03-31T15:32:32.681Z,13.63
2019-03-31T15:35:02.790Z,12.85
2019-03-31T15:37:32.883Z,13.29
2019-03-31T15:40:03.014Z,13.08
2019-03-31T15:42:33.121Z,12.93
2019-03-31T15:45:03.276Z,12.85
2019-03-31T15:47:33.365Z,13.03
2019-03-31T15:50:03.488Z,13.15
2019-03-31T15:52:33.664Z,13.38
2019-03-31T15:55:03.758Z,13.41
2019-03-31T15:57:33.839Z,13.50
2019-03-31T16:00:04.932Z,13.07
2019-03-31T16:02:35.003Z,13.45
2019-03-31T16:05:06.174Z,13.54
2019-03-31T16:07:36.385Z,13.23
2019-03-31T16:10:07.023Z,13.17
2019-03-31T16:12:36.572Z,13.36
2019-03-31T16:15:06.442Z,13.58
2019-03-31T16:17:36.108Z,13.79
2019-03-31T16:20:06.045Z,13.77
2019-03-31T16:22:35.547Z,13.46
2019-03-31T16:25:09.828Z,13.47
2019-03-31T16:27:39.517Z,13.47
2019-03-31T16:30:09.138Z,13.34
2019-03-31T16:32:38.656Z,13.44
2019-03-31T16:35:09.330Z,13.37
2019-03-31T16:37:38.879Z,13.30
2019-03-31T16:40:08.495Z,13.29
2019-03-31T16:42:38.121Z,13.05
2019-03-31T16:45:07.917Z,12.93
2019-03-31T16:47:37.434Z,13.15
2019-03-31T16:50:07.127Z,13.23
2019-03-31T16:52:36.666Z,13.06
2019-03-31T16:55:06.381Z,12.81
2019-03-31T16:57:37.003Z,12.42
2019-03-31T17:00:07.602Z,12.47
2019-03-31T17:02:37.174Z,12.41
2019-03-31T17:05:20.767Z,11.78
2019-03-31T17:07:38.552Z,11.75
2019-03-31T17:10:08.215Z,11.94
2019-03-31T17:12:37.734Z,11.71
2019-03-31T17:15:07.467Z,11.91
2019-03-31T17:17:36.985Z,12.04
2019-03-31T17:20:07.802Z,12.16
2019-03-31T17:22:37.488Z,12.30
2019-03-31T17:25:08.218Z,12.30
2019-03-31T17:27:38.101Z,12.32
2019-03-31T17:30:09.562Z,12.32
2019-03-31T17:32:39.099Z,12.42
2019-03-31T17:35:08.707Z,12.35
2019-03-31T17:37:38.258Z,12.10
2019-03-31T17:40:07.865Z,12.10
2019-03-31T17:42:37.452Z,11.27
2019-03-31T17:45:07.469Z,11.18
2019-03-31T17:47:37.495Z,10.95
2019-03-31T17:50:07.217Z,10.58
2019-03-31T17:52:36.700Z,10.78
2019-03-31T17:55:06.789Z,10.70
2019-03-31T17:57:37.408Z,10.81
2019-03-31T18:00:09.264Z,10.72
2019-03-31T18:02:38.814Z,10.49
2019-03-31T18:05:08.632Z,10.62
2019-03-31T18:07:38.149Z,10.54
2019-03-31T18:10:20.157Z,10.50
2019-03-31T18:12:38.966Z,10.41
2019-03-31T18:15:08.952Z,10.27
2019-03-31T18:17:38.493Z,10.27
2019-03-31T18:20:08.555Z,10.30
2019-03-31T18:22:38.510Z,10.45
2019-03-31T18:25:08.336Z,10.04
2019-03-31T18:27:38.226Z,10.10
2019-03-31T18:30:08.096Z,10.10
2019-03-31T18:32:37.606Z,10.20
2019-03-31T18:35:07.334Z,10.16
2019-03-31T18:37:36.875Z,9.72
2019-03-31T18:40:07.205Z,9.66
2019-03-31T18:42:36.895Z,9.44
2019-03-31T18:45:06.945Z,9.35
2019-03-31T18:47:36.935Z,9.53
2019-03-31T18:50:06.801Z,9.29
2019-03-31T18:52:37.491Z,9.19
2019-03-31T18:55:27.038Z,9.17
2019-03-31T18:58:02.354Z,9.42
2019-03-31T19:01:03.410Z,9.22
2019-03-31T19:03:50.617Z,9.22
2019-03-31T19:06:32.783Z,9.19
2019-03-31T19:09:21.410Z,9.03
2019-03-31T19:12:09.962Z,9.04
2019-03-31T19:14:51.784Z,9.03
2019-03-31T19:17:31.310Z,9.23
2019-03-31T19:20:29.140Z,9.17
2019-03-31T19:23:08.566Z,9.05
2019-03-31T19:25:56.586Z,8.88
2019-03-31T19:28:41.850Z,8.73
2019-03-31T19:31:36.612Z,8.67
2019-03-31T19:34:25.817Z,8.82
2019-03-31T19:37:14.404Z,8.80
2019-03-31T19:39:53.186Z,8.76
2019-03-31T19:42:41.862Z,8.65
2019-03-31T19:45:29.509Z,8.74
2019-03-31T19:48:07.574Z,9.01
2019-03-31T19:51:11.589Z,9.11
2019-03-31T19:54:06.123Z,8.92
2019-03-31T19:56:46.017Z,8.85
2019-03-31T19:59:37.725Z,9.04
2019-03-31T20:02:32.422Z,8.99
2019-03-31T20:05:19.846Z,9.03
2019-03-31T20:08:00.739Z,8.98
2019-03-31T20:10:45.962Z,9.02
2019-03-31T20:13:52.948Z,9.08
2019-03-31T20:16:45.136Z,8.87
2019-03-31T20:19:46.013Z,8.85
2019-03-31T20:22:34.595Z,8.72
2019-03-31T20:25:35.548Z,8.76
2019-03-31T20:28:11.443Z,8.79
2019-03-31T20:30:52.717Z,8.63
2019-03-31T20:33:40.276Z,8.46
2019-03-31T20:36:36.074Z,8.31
2019-03-31T20:39:23.471Z,8.15
2019-03-31T20:42:09.383Z,8.32
2019-03-31T20:44:38.998Z,8.18
2019-03-31T20:47:08.550Z,8.37
2019-03-31T20:49:38.100Z,8.42
2019-03-31T20:52:07.671Z,8.58
2019-03-31T20:54:37.214Z,8.67
2019-03-31T20:57:07.885Z,8.78
2019-03-31T20:59:39.962Z,8.68
2019-03-31T21:02:09.556Z,8.46
2019-03-31T21:04:40.177Z,8.53
2019-03-31T21:07:10.114Z,8.40
2019-03-31T21:09:45.227Z,8.31
2019-03-31T21:12:11.222Z,8.10
2019-03-31T21:14:40.861Z,8.25
2019-03-31T21:17:11.253Z,8.47
2019-03-31T21:19:40.815Z,8.69
2019-03-31T21:22:10.374Z,8.79
2019-03-31T21:24:40.115Z,8.95
2019-03-31T21:27:12.632Z,9.03
2019-03-31T21:29:42.173Z,9.20
2019-03-31T21:32:11.700Z,9.27
2019-03-31T21:34:41.248Z,9.31
2019-03-31T21:37:10.792Z,9.29
2019-03-31T21:39:40.304Z,9.30
2019-03-31T21:42:09.829Z,9.26
2019-03-31T21:44:39.349Z,9.26
2019-03-31T21:47:08.879Z,9.24
2019-03-31T21:49:38.387Z,9.19
2019-03-31T21:52:07.908Z,9.09
2019-03-31T21:54:37.437Z,9.11
2019-03-31T21:57:06.964Z,9.14
2019-03-31T21:59:36.503Z,9.13
2019-03-31T22:02:06.004Z,9.15
2019-03-31T22:04:35.543Z,8.93
2019-03-31T22:07:05.140Z,8.88
2019-03-31T22:09:34.652Z,8.84
2019-03-31T22:12:04.324Z,8.86
2019-03-31T22:14:33.835Z,8.88
2019-03-31T22:17:03.360Z,8.86
2019-03-31T22:19:32.882Z,8.76
2019-03-31T22:22:02.484Z,8.68
2019-03-31T22:24:31.998Z,8.63
2019-03-31T22:27:01.636Z,8.63
2019-03-31T22:29:31.175Z,8.52
2019-03-31T22:32:00.701Z,8.23
2019-03-31T22:34:30.230Z,8.10
2019-03-31T22:36:59.807Z,8.00
2019-03-31T22:39:29.339Z,8.02
2019-03-31T22:41:58.858Z,8.10
2019-03-31T22:44:28.396Z,8.18
2019-03-31T22:46:57.960Z,8.24
2019-03-31T22:49:27.497Z,8.23
2019-03-31T22:51:57.032Z,8.10
2019-03-31T22:54:29.183Z,7.87
2019-03-31T22:56:58.762Z,7.76
2019-03-31T22:59:28.362Z,7.57
2019-03-31T23:01:58.105Z,7.53
2019-03-31T23:04:27.830Z,7.53
2019-03-31T23:06:57.340Z,7.47
2019-03-31T23:09:26.933Z,7.40
2019-03-31T23:11:56.444Z,7.46
2019-03-31T23:14:25.963Z,7.56
2019-03-31T23:16:55.475Z,7.59
2019-03-31T23:19:25.010Z,7.63
2019-03-31T23:21:54.557Z,7.72
2019-03-31T23:24:24.095Z,7.76
2019-03-31T23:26:53.615Z,7.83
2019-03-31T23:29:23.131Z,7.84
2019-03-31T23:31:52.639Z,7.80
2019-03-31T23:34:22.154Z,7.80
2019-03-31T23:36:51.676Z,7.73
2019-03-31T23:39:21.246Z,7.51
2019-03-31T23:41:50.723Z,7.40
2019-03-31T23:44:20.256Z,7.44
2019-03-31T23:46:49.755Z,7.49
2019-03-31T23:49:19.297Z,7.43
2019-03-31T23:51:48.809Z,7.42
2019-03-31T23:54:18.335Z,7.50
2019-03-31T23:56:47.861Z,7.59
2019-03-31T23:59:17.394Z,7.64
